sensor_id;sensor_type;location;lat;lon;timestamp;temperature;humidity
17632;DHT22;8934;51.194;17.150;2023-04-01T00:00:22;8.70;99.90
17632;DHT22;8934;51.194;17.150;2023-04-01T00:03:10;8.70;99.90
17632;DHT22;8934;51.194;17.150;2023-04-01T00:06:00;8.70;99.90
17632;DHT22;8934;51.194;17.150;2023-04-01T00:08:48;8.70;99.90
17632;DHT22;8934;51.194;17.150;2023-04-01T00:11:35;8.70;99.90
17632;DHT22;8934;51.194;17.150;2023-04-01T00:14:23;8.70;99.90
17632;DHT22;8934;51.194;17.150;2023-04-01T00:17:11;8.70;99.90
17632;DHT22;8934;51.194;17.150;2023-04-01T00:19:58;8.60;99.90
17632;DHT22;8934;51.194;17.150;2023-04-01T00:22:47;8.60;99.90
17632;DHT22;8934;51.194;17.150;2023-04-01T00:25:35;8.50;99.90
17632;DHT22;8934;51.194;17.150;2023-04-01T00:28:22;8.50;99.90
17632;DHT22;8934;51.194;17.150;2023-04-01T00:31:11;8.50;99.90
17632;DHT22;8934;51.194;17.150;2023-04-01T00:33:58;8.40;99.90
17632;DHT22;8934;51.194;17.150;2023-04-01T00:36:46;8.40;99.90
17632;DHT22;8934;51.194;17.150;2023-04-01T00:39:35;8.40;99.90
17632;DHT22;8934;51.194;17.150;2023-04-01T00:42:24;8.40;99.90
17632;DHT22;8934;51.194;17.150;2023-04-01T00:45:31;8.40;99.90
17632;DHT22;8934;51.194;17.150;2023-04-01T00:48:23;8.30;99.90
17632;DHT22;8934;51.194;17.150;2023-04-01T00:51:15;8.30;99.90
17632;DHT22;8934;51.194;17.150;2023-04-01T00:54:08;8.30;99.90
17632;DHT22;8934;51.194;17.150;2023-04-01T00:57:00;8.30;99.90
17632;DHT22;8934;51.194;17.150;2023-04-01T00:59:52;8.40;99.90
17632;DHT22;8934;51.194;17.150;2023-04-01T01:02:43;8.50;99.90
17632;DHT22;8934;51.194;17.150;2023-04-01T01:05:43;8.60;99.90
17632;DHT22;8934;51.194;17.150;2023-04-01T01:08:44;8.70;99.90
17632;DHT22;8934;51.194;17.150;2023-04-01T01:11:38;8.80;99.90
17632;DHT22;8934;51.194;17.150;2023-04-01T01:14:40;8.80;99.90
17632;DHT22;8934;51.194;17.150;2023-04-01T01:17:39;8.90;99.90
17632;DHT22;8934;51.194;17.150;2023-04-01T01:25:16;8.90;99.90
17632;DHT22;8934;51.194;17.150;2023-04-01T01:28:21;9.00;99.90
17632;DHT22;8934;51.194;17.150;2023-04-01T01:31:19;9.00;99.90
17632;DHT22;8934;51.194;17.150;2023-04-01T01:34:15;9.00;99.90
17632;DHT22;8934;51.194;17.150;2023-04-01T01:37:12;8.90;99.90
17632;DHT22;8934;51.194;17.150;2023-04-01T01:40:05;8.90;99.90
17632;DHT22;8934;51.194;17.150;2023-04-01T01:42:57;8.90;99.90
17632;DHT22;8934;51.194;17.150;2023-04-01T01:45:50;8.80;99.90
17632;DHT22;8934;51.194;17.150;2023-04-01T01:48:41;8.80;99.90
17632;DHT22;8934;51.194;17.150;2023-04-01T01:51:30;8.80;99.90
17632;DHT22;8934;51.194;17.150;2023-04-01T01:54:21;8.80;99.90
17632;DHT22;8934;51.194;17.150;2023-04-01T01:57:09;8.80;99.90
17632;DHT22;8934;51.194;17.150;2023-04-01T02:00:06;8.80;99.90
17632;DHT22;8934;51.194;17.150;2023-04-01T02:03:00;8.80;99.90
17632;DHT22;8934;51.194;17.150;2023-04-01T02:05:50;8.80;99.90
17632;DHT22;8934;51.194;17.150;2023-04-01T02:08:42;8.80;99.90
17632;DHT22;8934;51.194;17.150;2023-04-01T02:11:37;8.70;99.90
17632;DHT22;8934;51.194;17.150;2023-04-01T02:14:27;8.70;99.90
17632;DHT22;8934;51.194;17.150;2023-04-01T02:17:18;8.70;99.90
17632;DHT22;8934;51.194;17.150;2023-04-01T02:20:09;8.70;99.90
17632;DHT22;8934;51.194;17.150;2023-04-01T02:22:58;8.70;99.90
17632;DHT22;8934;51.194;17.150;2023-04-01T02:25:47;8.70;99.90
17632;DHT22;8934;51.194;17.150;2023-04-01T02:28:37;8.80;99.90
17632;DHT22;8934;51.194;17.150;2023-04-01T02:31:27;8.80;99.90
17632;DHT22;8934;51.194;17.150;2023-04-01T02:34:15;8.70;99.90
17632;DHT22;8934;51.194;17.150;2023-04-01T02:37:03;8.70;99.90
17632;DHT22;8934;51.194;17.150;2023-04-01T02:39:51;8.70;99.90
17632;DHT22;8934;51.194;17.150;2023-04-01T02:42:38;8.70;99.90
17632;DHT22;8934;51.194;17.150;2023-04-01T02:45:27;8.70;99.90
17632;DHT22;8934;51.194;17.150;2023-04-01T02:48:15;8.70;99.90
17632;DHT22;8934;51.194;17.150;2023-04-01T02:51:03;8.70;99.90
17632;DHT22;8934;51.194;17.150;2023-04-01T02:53:51;8.70;99.90
17632;DHT22;8934;51.194;17.150;2023-04-01T02:56:39;8.70;99.90
17632;DHT22;8934;51.194;17.150;2023-04-01T02:59:26;8.70;99.90
17632;DHT22;8934;51.194;17.150;2023-04-01T03:02:16;8.70;99.90
17632;DHT22;8934;51.194;17.150;2023-04-01T03:05:05;8.70;99.90
17632;DHT22;8934;51.194;17.150;2023-04-01T03:07:53;8.70;99.90
17632;DHT22;8934;51.194;17.150;2023-04-01T03:10:41;8.70;99.90
17632;DHT22;8934;51.194;17.150;2023-04-01T03:13:29;8.70;99.90
17632;DHT22;8934;51.194;17.150;2023-04-01T03:16:16;8.70;99.90
17632;DHT22;8934;51.194;17.150;2023-04-01T03:19:06;8.70;99.90
17632;DHT22;8934;51.194;17.150;2023-04-01T03:21:55;8.70;99.90
17632;DHT22;8934;51.194;17.150;2023-04-01T03:24:42;8.70;99.90
17632;DHT22;8934;51.194;17.150;2023-04-01T03:27:31;8.80;99.90
17632;DHT22;8934;51.194;17.150;2023-04-01T03:30:19;8.80;99.90
17632;DHT22;8934;51.194;17.150;2023-04-01T03:33:09;8.90;99.90
17632;DHT22;8934;51.194;17.150;2023-04-01T03:35:58;9.00;99.90
17632;DHT22;8934;51.194;17.150;2023-04-01T03:38:46;9.00;99.90
17632;DHT22;8934;51.194;17.150;2023-04-01T03:41:40;9.00;99.90
17632;DHT22;8934;51.194;17.150;2023-04-01T03:44:30;9.00;99.90
17632;DHT22;8934;51.194;17.150;2023-04-01T03:47:19;9.00;99.90
17632;DHT22;8934;51.194;17.150;2023-04-01T03:50:07;9.10;99.90
17632;DHT22;8934;51.194;17.150;2023-04-01T03:52:58;9.10;99.90
17632;DHT22;8934;51.194;17.150;2023-04-01T03:55:45;9.10;99.90
17632;DHT22;8934;51.194;17.150;2023-04-01T03:58:34;9.10;99.90
17632;DHT22;8934;51.194;17.150;2023-04-01T04:01:24;9.10;99.90
17632;DHT22;8934;51.194;17.150;2023-04-01T04:04:14;9.10;99.90
17632;DHT22;8934;51.194;17.150;2023-04-01T04:07:02;9.10;99.90
17632;DHT22;8934;51.194;17.150;2023-04-01T04:10:08;9.10;99.90
17632;DHT22;8934;51.194;17.150;2023-04-01T04:12:57;9.00;99.90
17632;DHT22;8934;51.194;17.150;2023-04-01T04:15:48;9.10;99.90
17632;DHT22;8934;51.194;17.150;2023-04-01T04:18:36;9.00;99.90
17632;DHT22;8934;51.194;17.150;2023-04-01T04:21:23;9.00;99.90
17632;DHT22;8934;51.194;17.150;2023-04-01T04:24:12;9.00;99.90
17632;DHT22;8934;51.194;17.150;2023-04-01T04:27:20;9.00;99.90
17632;DHT22;8934;51.194;17.150;2023-04-01T04:30:21;9.00;99.90
17632;DHT22;8934;51.194;17.150;2023-04-01T04:33:09;9.00;99.90
17632;DHT22;8934;51.194;17.150;2023-04-01T04:35:58;9.00;99.90
17632;DHT22;8934;51.194;17.150;2023-04-01T04:38:46;9.00;99.90
17632;DHT22;8934;51.194;17.150;2023-04-01T04:41:37;9.00;99.90
17632;DHT22;8934;51.194;17.150;2023-04-01T04:44:26;9.00;99.90
17632;DHT22;8934;51.194;17.150;2023-04-01T04:47:14;9.00;99.90
17632;DHT22;8934;51.194;17.150;2023-04-01T04:50:02;9.00;99.90
17632;DHT22;8934;51.194;17.150;2023-04-01T04:52:50;8.90;99.90
17632;DHT22;8934;51.194;17.150;2023-04-01T04:55:42;9.00;99.90
17632;DHT22;8934;51.194;17.150;2023-04-01T04:58:41;9.00;99.90
17632;DHT22;8934;51.194;17.150;2023-04-01T05:01:35;8.90;99.90
17632;DHT22;8934;51.194;17.150;2023-04-01T05:04:24;9.00;99.90
17632;DHT22;8934;51.194;17.150;2023-04-01T05:07:12;9.00;99.90
17632;DHT22;8934;51.194;17.150;2023-04-01T05:09:59;9.00;99.90
17632;DHT22;8934;51.194;17.150;2023-04-01T05:12:47;9.00;99.90
17632;DHT22;8934;51.194;17.150;2023-04-01T05:15:39;9.00;99.90
17632;DHT22;8934;51.194;17.150;2023-04-01T05:18:28;9.00;99.90
17632;DHT22;8934;51.194;17.150;2023-04-01T05:21:16;9.10;99.90
17632;DHT22;8934;51.194;17.150;2023-04-01T05:24:08;9.10;99.90
17632;DHT22;8934;51.194;17.150;2023-04-01T05:26:57;9.20;99.90
17632;DHT22;8934;51.194;17.150;2023-04-01T05:29:46;9.20;99.90
17632;DHT22;8934;51.194;17.150;2023-04-01T05:32:53;9.10;99.90
17632;DHT22;8934;51.194;17.150;2023-04-01T05:35:42;9.20;99.90
17632;DHT22;8934;51.194;17.150;2023-04-01T05:38:31;9.20;99.90
17632;DHT22;8934;51.194;17.150;2023-04-01T05:41:19;9.20;99.90
17632;DHT22;8934;51.194;17.150;2023-04-01T05:44:07;9.20;99.90
17632;DHT22;8934;51.194;17.150;2023-04-01T05:47:00;9.20;99.90
17632;DHT22;8934;51.194;17.150;2023-04-01T05:49:51;9.20;99.90
17632;DHT22;8934;51.194;17.150;2023-04-01T05:52:40;9.20;99.90
17632;DHT22;8934;51.194;17.150;2023-04-01T05:55:28;9.20;99.90
17632;DHT22;8934;51.194;17.150;2023-04-01T05:58:17;9.30;99.90
17632;DHT22;8934;51.194;17.150;2023-04-01T06:01:09;9.30;99.90
17632;DHT22;8934;51.194;17.150;2023-04-01T06:04:03;9.30;99.90
17632;DHT22;8934;51.194;17.150;2023-04-01T06:06:51;9.30;99.90
17632;DHT22;8934;51.194;17.150;2023-04-01T06:09:41;9.40;99.90
17632;DHT22;8934;51.194;17.150;2023-04-01T06:12:40;9.40;99.90
17632;DHT22;8934;51.194;17.150;2023-04-01T06:15:36;9.40;99.90
17632;DHT22;8934;51.194;17.150;2023-04-01T06:18:50;9.40;99.90
17632;DHT22;8934;51.194;17.150;2023-04-01T06:28:41;9.50;99.90
17632;DHT22;8934;51.194;17.150;2023-04-01T06:31:43;9.50;99.90
17632;DHT22;8934;51.194;17.150;2023-04-01T06:38:27;9.60;99.90
17632;DHT22;8934;51.194;17.150;2023-04-01T06:41:40;9.60;99.90
17632;DHT22;8934;51.194;17.150;2023-04-01T06:44:45;9.60;99.90
17632;DHT22;8934;51.194;17.150;2023-04-01T06:48:10;9.60;99.90
17632;DHT22;8934;51.194;17.150;2023-04-01T06:51:26;9.60;99.90
17632;DHT22;8934;51.194;17.150;2023-04-01T06:54:46;9.50;99.90
17632;DHT22;8934;51.194;17.150;2023-04-01T06:57:55;9.60;99.90
17632;DHT22;8934;51.194;17.150;2023-04-01T07:00:48;9.60;99.90
17632;DHT22;8934;51.194;17.150;2023-04-01T07:03:41;9.60;99.90
17632;DHT22;8934;51.194;17.150;2023-04-01T07:06:32;9.60;99.90
17632;DHT22;8934;51.194;17.150;2023-04-01T07:09:26;9.70;99.90
17632;DHT22;8934;51.194;17.150;2023-04-01T07:12:51;9.70;99.90
17632;DHT22;8934;51.194;17.150;2023-04-01T07:16:07;9.70;99.90
17632;DHT22;8934;51.194;17.150;2023-04-01T07:19:02;9.80;99.90
17632;DHT22;8934;51.194;17.150;2023-04-01T07:22:17;9.80;99.90
17632;DHT22;8934;51.194;17.150;2023-04-01T07:25:34;9.90;99.90
17632;DHT22;8934;51.194;17.150;2023-04-01T07:28:55;10.00;99.90
17632;DHT22;8934;51.194;17.150;2023-04-01T07:32:17;10.00;99.90
17632;DHT22;8934;51.194;17.150;2023-04-01T07:35:13;10.00;99.90
17632;DHT22;8934;51.194;17.150;2023-04-01T07:38:15;10.00;99.90
17632;DHT22;8934;51.194;17.150;2023-04-01T07:41:11;10.00;99.90
17632;DHT22;8934;51.194;17.150;2023-04-01T07:44:08;10.00;99.90
17632;DHT22;8934;51.194;17.150;2023-04-01T07:47:17;10.00;99.90
17632;DHT22;8934;51.194;17.150;2023-04-01T07:50:16;10.00;99.90
17632;DHT22;8934;51.194;17.150;2023-04-01T07:53:13;10.10;99.90
17632;DHT22;8934;51.194;17.150;2023-04-01T07:56:07;10.10;99.90
17632;DHT22;8934;51.194;17.150;2023-04-01T07:59:04;10.20;99.90
17632;DHT22;8934;51.194;17.150;2023-04-01T08:02:26;10.20;99.90
17632;DHT22;8934;51.194;17.150;2023-04-01T08:05:22;10.20;99.90
17632;DHT22;8934;51.194;17.150;2023-04-01T08:08:22;10.30;99.90
17632;DHT22;8934;51.194;17.150;2023-04-01T08:11:50;10.30;99.90
17632;DHT22;8934;51.194;17.150;2023-04-01T08:15:16;10.40;99.90
17632;DHT22;8934;51.194;17.150;2023-04-01T08:18:38;10.40;99.90
17632;DHT22;8934;51.194;17.150;2023-04-01T08:21:29;10.30;99.90
17632;DHT22;8934;51.194;17.150;2023-04-01T08:24:27;10.30;99.90
17632;DHT22;8934;51.194;17.150;2023-04-01T08:27:37;10.30;99.90
17632;DHT22;8934;51.194;17.150;2023-04-01T08:30:34;10.30;99.90
17632;DHT22;8934;51.194;17.150;2023-04-01T08:33:26;10.30;99.90
17632;DHT22;8934;51.194;17.150;2023-04-01T08:36:29;10.30;99.90
17632;DHT22;8934;51.194;17.150;2023-04-01T08:39:31;10.40;99.90
17632;DHT22;8934;51.194;17.150;2023-04-01T08:42:48;10.40;99.90
17632;DHT22;8934;51.194;17.150;2023-04-01T08:46:00;10.50;99.90
17632;DHT22;8934;51.194;17.150;2023-04-01T08:49:15;10.50;99.90
17632;DHT22;8934;51.194;17.150;2023-04-01T08:52:19;10.60;99.90
17632;DHT22;8934;51.194;17.150;2023-04-01T08:55:26;10.70;99.90
17632;DHT22;8934;51.194;17.150;2023-04-01T08:58:54;10.70;99.90
17632;DHT22;8934;51.194;17.150;2023-04-01T09:02:16;10.80;99.90
17632;DHT22;8934;51.194;17.150;2023-04-01T09:05:34;10.80;99.90
17632;DHT22;8934;51.194;17.150;2023-04-01T09:08:32;10.90;99.90
17632;DHT22;8934;51.194;17.150;2023-04-01T09:11:31;10.90;99.90
17632;DHT22;8934;51.194;17.150;2023-04-01T09:18:20;10.80;99.90
17632;DHT22;8934;51.194;17.150;2023-04-01T09:28:10;10.80;99.90
17632;DHT22;8934;51.194;17.150;2023-04-01T09:31:14;10.80;99.90
17632;DHT22;8934;51.194;17.150;2023-04-01T09:34:49;10.80;99.90
17632;DHT22;8934;51.194;17.150;2023-04-01T09:37:53;10.70;99.90
17632;DHT22;8934;51.194;17.150;2023-04-01T09:40:51;10.60;99.90
17632;DHT22;8934;51.194;17.150;2023-04-01T09:44:18;10.60;99.90
17632;DHT22;8934;51.194;17.150;2023-04-01T09:47:40;10.50;99.90
17632;DHT22;8934;51.194;17.150;2023-04-01T09:50:35;10.50;99.90
17632;DHT22;8934;51.194;17.150;2023-04-01T09:53:44;10.50;99.90
17632;DHT22;8934;51.194;17.150;2023-04-01T10:00:52;10.60;99.90
17632;DHT22;8934;51.194;17.150;2023-04-01T10:04:14;10.70;99.90
17632;DHT22;8934;51.194;17.150;2023-04-01T10:10:50;10.90;99.90
17632;DHT22;8934;51.194;17.150;2023-04-01T10:17:26;11.00;99.90
17632;DHT22;8934;51.194;17.150;2023-04-01T10:27:16;11.00;99.90
17632;DHT22;8934;51.194;17.150;2023-04-01T10:34:10;10.90;99.90
17632;DHT22;8934;51.194;17.150;2023-04-01T10:37:11;10.80;99.90
17632;DHT22;8934;51.194;17.150;2023-04-01T10:40:28;10.80;99.90
17632;DHT22;8934;51.194;17.150;2023-04-01T10:47:45;10.90;99.90
17632;DHT22;8934;51.194;17.150;2023-04-01T10:54:37;11.10;99.90
17632;DHT22;8934;51.194;17.150;2023-04-01T10:58:23;11.20;99.90
17632;DHT22;8934;51.194;17.150;2023-04-01T11:02:03;11.20;99.90
17632;DHT22;8934;51.194;17.150;2023-04-01T11:05:35;11.30;99.90
17632;DHT22;8934;51.194;17.150;2023-04-01T11:21:00;12.00;99.90
17632;DHT22;8934;51.194;17.150;2023-04-01T11:27:59;11.90;99.90
17632;DHT22;8934;51.194;17.150;2023-04-01T11:31:04;11.80;99.90
17632;DHT22;8934;51.194;17.150;2023-04-01T11:34:05;11.90;99.90
17632;DHT22;8934;51.194;17.150;2023-04-01T11:37:07;12.00;99.90
17632;DHT22;8934;51.194;17.150;2023-04-01T11:40:12;12.10;99.90
17632;DHT22;8934;51.194;17.150;2023-04-01T11:43:27;12.20;99.90
17632;DHT22;8934;51.194;17.150;2023-04-01T11:46:43;12.10;99.90
17632;DHT22;8934;51.194;17.150;2023-04-01T11:49:44;12.10;99.90
17632;DHT22;8934;51.194;17.150;2023-04-01T11:52:59;12.00;99.90
17632;DHT22;8934;51.194;17.150;2023-04-01T11:56:10;11.80;99.90
17632;DHT22;8934;51.194;17.150;2023-04-01T11:59:27;11.70;99.90
17632;DHT22;8934;51.194;17.150;2023-04-01T12:02:25;11.70;99.90
17632;DHT22;8934;51.194;17.150;2023-04-01T12:05:25;11.70;99.90
17632;DHT22;8934;51.194;17.150;2023-04-01T12:08:27;11.70;99.90
17632;DHT22;8934;51.194;17.150;2023-04-01T12:11:25;11.80;99.90
17632;DHT22;8934;51.194;17.150;2023-04-01T12:14:19;11.90;99.90
17632;DHT22;8934;51.194;17.150;2023-04-01T12:17:19;11.90;99.90
17632;DHT22;8934;51.194;17.150;2023-04-01T12:20:28;12.00;99.90
17632;DHT22;8934;51.194;17.150;2023-04-01T12:23:42;12.00;99.90
17632;DHT22;8934;51.194;17.150;2023-04-01T12:27:05;12.10;99.90
17632;DHT22;8934;51.194;17.150;2023-04-01T12:30:14;12.30;99.90
17632;DHT22;8934;51.194;17.150;2023-04-01T12:36:35;12.70;99.90
17632;DHT22;8934;51.194;17.150;2023-04-01T12:43:02;12.90;99.90
17632;DHT22;8934;51.194;17.150;2023-04-01T12:45:54;13.20;99.90
17632;DHT22;8934;51.194;17.150;2023-04-01T12:49:17;13.20;99.90
17632;DHT22;8934;51.194;17.150;2023-04-01T12:52:10;13.40;99.90
17632;DHT22;8934;51.194;17.150;2023-04-01T12:55:27;13.60;99.90
17632;DHT22;8934;51.194;17.150;2023-04-01T13:02:03;14.10;99.90
17632;DHT22;8934;51.194;17.150;2023-04-01T13:05:10;14.00;99.90
17632;DHT22;8934;51.194;17.150;2023-04-01T13:08:10;13.90;99.90
17632;DHT22;8934;51.194;17.150;2023-04-01T13:11:07;13.80;99.90
17632;DHT22;8934;51.194;17.150;2023-04-01T13:14:20;13.90;99.90
17632;DHT22;8934;51.194;17.150;2023-04-01T13:17:21;13.80;99.90
17632;DHT22;8934;51.194;17.150;2023-04-01T13:20:19;13.80;99.90
17632;DHT22;8934;51.194;17.150;2023-04-01T13:23:19;13.80;99.90
17632;DHT22;8934;51.194;17.150;2023-04-01T13:26:16;13.80;99.90
17632;DHT22;8934;51.194;17.150;2023-04-01T13:29:13;13.70;99.90
17632;DHT22;8934;51.194;17.150;2023-04-01T13:32:22;13.60;99.90
17632;DHT22;8934;51.194;17.150;2023-04-01T13:35:38;13.50;99.90
17632;DHT22;8934;51.194;17.150;2023-04-01T13:42:02;13.70;99.90
17632;DHT22;8934;51.194;17.150;2023-04-01T13:45:00;13.70;99.90
17632;DHT22;8934;51.194;17.150;2023-04-01T13:51:29;13.50;99.90
17632;DHT22;8934;51.194;17.150;2023-04-01T13:54:45;13.30;99.90
17632;DHT22;8934;51.194;17.150;2023-04-01T13:57:46;13.10;99.90
17632;DHT22;8934;51.194;17.150;2023-04-01T14:01:02;12.90;99.90
17632;DHT22;8934;51.194;17.150;2023-04-01T14:04:10;12.70;99.90
17632;DHT22;8934;51.194;17.150;2023-04-01T14:07:18;12.60;99.90
17632;DHT22;8934;51.194;17.150;2023-04-01T14:10:19;12.30;99.90
17632;DHT22;8934;51.194;17.150;2023-04-01T14:13:15;12.10;99.90
17632;DHT22;8934;51.194;17.150;2023-04-01T14:16:21;12.00;99.90
17632;DHT22;8934;51.194;17.150;2023-04-01T14:19:24;11.90;99.90
17632;DHT22;8934;51.194;17.150;2023-04-01T14:22:25;11.80;99.90
17632;DHT22;8934;51.194;17.150;2023-04-01T14:25:27;11.90;99.90
17632;DHT22;8934;51.194;17.150;2023-04-01T14:28:29;12.00;99.90
17632;DHT22;8934;51.194;17.150;2023-04-01T14:31:30;12.10;99.90
17632;DHT22;8934;51.194;17.150;2023-04-01T14:34:29;12.10;99.90
17632;DHT22;8934;51.194;17.150;2023-04-01T14:37:58;12.10;99.90
17632;DHT22;8934;51.194;17.150;2023-04-01T14:40:55;12.10;99.90
17632;DHT22;8934;51.194;17.150;2023-04-01T14:47:34;12.00;99.90
17632;DHT22;8934;51.194;17.150;2023-04-01T14:50:28;11.70;99.90
17632;DHT22;8934;51.194;17.150;2023-04-01T14:53:26;11.50;99.90
17632;DHT22;8934;51.194;17.150;2023-04-01T14:56:35;11.40;99.90
17632;DHT22;8934;51.194;17.150;2023-04-01T14:59:27;11.20;99.90
17632;DHT22;8934;51.194;17.150;2023-04-01T15:02:38;11.10;99.90
17632;DHT22;8934;51.194;17.150;2023-04-01T15:05:39;11.00;99.90
17632;DHT22;8934;51.194;17.150;2023-04-01T15:08:32;10.90;99.90
17632;DHT22;8934;51.194;17.150;2023-04-01T15:11:29;10.90;99.90
17632;DHT22;8934;51.194;17.150;2023-04-01T15:17:44;10.90;99.90
17632;DHT22;8934;51.194;17.150;2023-04-01T15:21:02;10.80;99.90
17632;DHT22;8934;51.194;17.150;2023-04-01T15:24:03;10.80;99.90
17632;DHT22;8934;51.194;17.150;2023-04-01T15:27:08;10.80;99.90
17632;DHT22;8934;51.194;17.150;2023-04-01T15:30:09;10.70;99.90
17632;DHT22;8934;51.194;17.150;2023-04-01T15:33:20;10.70;99.90
17632;DHT22;8934;51.194;17.150;2023-04-01T15:36:20;10.60;99.90
17632;DHT22;8934;51.194;17.150;2023-04-01T15:39:14;10.60;99.90
17632;DHT22;8934;51.194;17.150;2023-04-01T15:42:19;10.70;99.90
17632;DHT22;8934;51.194;17.150;2023-04-01T15:45:18;10.70;99.90
17632;DHT22;8934;51.194;17.150;2023-04-01T15:48:21;10.70;99.90
17632;DHT22;8934;51.194;17.150;2023-04-01T15:55:04;10.80;99.90
17632;DHT22;8934;51.194;17.150;2023-04-01T15:58:17;10.90;99.90
17632;DHT22;8934;51.194;17.150;2023-04-01T16:01:15;11.00;99.90
17632;DHT22;8934;51.194;17.150;2023-04-01T16:04:22;11.10;99.90
17632;DHT22;8934;51.194;17.150;2023-04-01T16:07:30;11.10;99.90
17632;DHT22;8934;51.194;17.150;2023-04-01T16:10:44;11.10;99.90
17632;DHT22;8934;51.194;17.150;2023-04-01T16:13:43;11.10;99.90
17632;DHT22;8934;51.194;17.150;2023-04-01T16:16:48;11.10;99.90
17632;DHT22;8934;51.194;17.150;2023-04-01T16:19:51;11.00;99.90
17632;DHT22;8934;51.194;17.150;2023-04-01T16:22:46;11.00;99.90
17632;DHT22;8934;51.194;17.150;2023-04-01T16:25:40;10.90;99.90
17632;DHT22;8934;51.194;17.150;2023-04-01T16:28:30;10.90;99.90
17632;DHT22;8934;51.194;17.150;2023-04-01T16:31:30;10.80;99.90
17632;DHT22;8934;51.194;17.150;2023-04-01T16:34:24;10.80;99.90
17632;DHT22;8934;51.194;17.150;2023-04-01T16:37:19;10.70;99.90
17632;DHT22;8934;51.194;17.150;2023-04-01T16:40:16;10.60;99.90
17632;DHT22;8934;51.194;17.150;2023-04-01T16:43:14;10.60;99.90
17632;DHT22;8934;51.194;17.150;2023-04-01T16:46:29;10.50;99.90
17632;DHT22;8934;51.194;17.150;2023-04-01T16:49:30;10.50;99.90
17632;DHT22;8934;51.194;17.150;2023-04-01T16:52:40;10.50;99.90
17632;DHT22;8934;51.194;17.150;2023-04-01T16:55:35;10.40;99.90
17632;DHT22;8934;51.194;17.150;2023-04-01T16:58:33;10.40;99.90
17632;DHT22;8934;51.194;17.150;2023-04-01T17:01:24;10.30;99.90
17632;DHT22;8934;51.194;17.150;2023-04-01T17:04:19;10.30;99.90
17632;DHT22;8934;51.194;17.150;2023-04-01T17:07:20;10.30;99.90
17632;DHT22;8934;51.194;17.150;2023-04-01T17:10:43;10.30;99.90
17632;DHT22;8934;51.194;17.150;2023-04-01T17:13:35;10.20;99.90
17632;DHT22;8934;51.194;17.150;2023-04-01T17:19:49;10.20;99.90
17632;DHT22;8934;51.194;17.150;2023-04-01T17:22:47;10.10;99.90
17632;DHT22;8934;51.194;17.150;2023-04-01T17:26:01;10.10;99.90
17632;DHT22;8934;51.194;17.150;2023-04-01T17:28:56;10.00;99.90
17632;DHT22;8934;51.194;17.150;2023-04-01T17:31:46;9.90;99.90
17632;DHT22;8934;51.194;17.150;2023-04-01T17:34:45;9.90;99.90
17632;DHT22;8934;51.194;17.150;2023-04-01T17:37:41;9.80;99.90
17632;DHT22;8934;51.194;17.150;2023-04-01T17:43:50;9.70;99.90
17632;DHT22;8934;51.194;17.150;2023-04-01T17:47:00;9.70;99.90
17632;DHT22;8934;51.194;17.150;2023-04-01T17:49:59;9.70;99.90
17632;DHT22;8934;51.194;17.150;2023-04-01T17:53:03;9.60;99.90
17632;DHT22;8934;51.194;17.150;2023-04-01T17:56:06;9.60;99.90
17632;DHT22;8934;51.194;17.150;2023-04-01T17:59:05;9.60;99.90
17632;DHT22;8934;51.194;17.150;2023-04-01T18:02:05;9.50;99.90
17632;DHT22;8934;51.194;17.150;2023-04-01T18:05:15;9.50;99.90
17632;DHT22;8934;51.194;17.150;2023-04-01T18:08:17;9.40;99.90
17632;DHT22;8934;51.194;17.150;2023-04-01T18:11:11;9.40;99.90
17632;DHT22;8934;51.194;17.150;2023-04-01T18:14:42;9.30;99.90
17632;DHT22;8934;51.194;17.150;2023-04-01T18:17:42;9.30;99.90
17632;DHT22;8934;51.194;17.150;2023-04-01T18:20:43;9.20;99.90
17632;DHT22;8934;51.194;17.150;2023-04-01T18:23:38;9.20;99.90
17632;DHT22;8934;51.194;17.150;2023-04-01T18:26:33;9.10;99.90
17632;DHT22;8934;51.194;17.150;2023-04-01T18:29:31;9.10;99.90
17632;DHT22;8934;51.194;17.150;2023-04-01T18:32:34;9.00;99.90
17632;DHT22;8934;51.194;17.150;2023-04-01T18:35:29;9.00;99.90
17632;DHT22;8934;51.194;17.150;2023-04-01T18:38:26;9.00;99.90
17632;DHT22;8934;51.194;17.150;2023-04-01T18:41:20;9.00;99.90
17632;DHT22;8934;51.194;17.150;2023-04-01T18:44:27;8.90;99.90
17632;DHT22;8934;51.194;17.150;2023-04-01T18:47:24;8.90;99.90
17632;DHT22;8934;51.194;17.150;2023-04-01T18:50:21;8.90;99.90
17632;DHT22;8934;51.194;17.150;2023-04-01T18:53:17;8.90;99.90
17632;DHT22;8934;51.194;17.150;2023-04-01T18:56:08;8.90;99.90
17632;DHT22;8934;51.194;17.150;2023-04-01T18:59:03;8.90;99.90
17632;DHT22;8934;51.194;17.150;2023-04-01T19:02:00;8.90;99.90
17632;DHT22;8934;51.194;17.150;2023-04-01T19:04:53;8.80;99.90
17632;DHT22;8934;51.194;17.150;2023-04-01T19:07:46;8.80;99.90
17632;DHT22;8934;51.194;17.150;2023-04-01T19:10:41;8.80;99.90
17632;DHT22;8934;51.194;17.150;2023-04-01T19:13:41;8.80;99.90
17632;DHT22;8934;51.194;17.150;2023-04-01T19:16:42;8.80;99.90
17632;DHT22;8934;51.194;17.150;2023-04-01T19:19:44;8.80;99.90
17632;DHT22;8934;51.194;17.150;2023-04-01T19:22:49;8.70;99.90
17632;DHT22;8934;51.194;17.150;2023-04-01T19:25:40;8.70;99.90
17632;DHT22;8934;51.194;17.150;2023-04-01T19:28:39;8.70;99.90
17632;DHT22;8934;51.194;17.150;2023-04-01T19:31:42;8.70;99.90
17632;DHT22;8934;51.194;17.150;2023-04-01T19:34:41;8.70;99.90
17632;DHT22;8934;51.194;17.150;2023-04-01T19:37:36;8.70;99.90
17632;DHT22;8934;51.194;17.150;2023-04-01T19:40:42;8.70;99.90
17632;DHT22;8934;51.194;17.150;2023-04-01T19:43:48;8.70;99.90
17632;DHT22;8934;51.194;17.150;2023-04-01T19:46:41;8.70;99.90
17632;DHT22;8934;51.194;17.150;2023-04-01T19:49:44;8.60;99.90
17632;DHT22;8934;51.194;17.150;2023-04-01T19:52:37;8.60;99.90
17632;DHT22;8934;51.194;17.150;2023-04-01T19:55:35;8.60;99.90
17632;DHT22;8934;51.194;17.150;2023-04-01T19:58:28;8.60;99.90
17632;DHT22;8934;51.194;17.150;2023-04-01T20:01:24;8.60;99.90
17632;DHT22;8934;51.194;17.150;2023-04-01T20:04:33;8.60;99.90
17632;DHT22;8934;51.194;17.150;2023-04-01T20:07:29;8.60;99.90
17632;DHT22;8934;51.194;17.150;2023-04-01T20:10:22;8.60;99.90
17632;DHT22;8934;51.194;17.150;2023-04-01T20:13:18;8.60;99.90
17632;DHT22;8934;51.194;17.150;2023-04-01T20:16:10;8.60;99.90
17632;DHT22;8934;51.194;17.150;2023-04-01T20:19:00;8.60;99.90
17632;DHT22;8934;51.194;17.150;2023-04-01T20:21:49;8.60;99.90
17632;DHT22;8934;51.194;17.150;2023-04-01T20:24:43;8.60;99.90
17632;DHT22;8934;51.194;17.150;2023-04-01T20:27:35;8.60;99.90
17632;DHT22;8934;51.194;17.150;2023-04-01T20:30:57;8.50;99.90
17632;DHT22;8934;51.194;17.150;2023-04-01T20:37:28;8.50;99.90
17632;DHT22;8934;51.194;17.150;2023-04-01T20:40:36;8.50;99.90
17632;DHT22;8934;51.194;17.150;2023-04-01T20:43:50;8.50;99.90
17632;DHT22;8934;51.194;17.150;2023-04-01T20:46:48;8.50;99.90
17632;DHT22;8934;51.194;17.150;2023-04-01T20:49:45;8.40;99.90
17632;DHT22;8934;51.194;17.150;2023-04-01T20:52:42;8.40;99.90